Hlavní strana
METAR-TAF:

METAR-TAF

Letiště :

Augsburg, Německo

zeměpisná šířka: 48-26N, zeměpisná délka: 010-56E, výška: 461 m

Aktuální stav počasí

Zpráva byla vytvořena před 30 minutami, v 09:50 UTC
vítr z různých směrů 3 kt
Teplota 20°C
Vlhkost vzduchu 78%
Tlak 1022 hPa
Viditelnost 10 km a více
Žádná oblačnost pod 1500 m, nevyskytují se cumulonimby.

METAR: EDMA 180950Z VRB03KT CAVOK 20/16 Q1022

Čas: 12:20 (10:20 UTC)

Předpověď počasí

Zpráva byla vytvořena před 2 hodinami a 20 minutami, v 08:00 UTC
Předpověď platná od 18 v 09 UTC do 18 v 18 UTC
Západní vítr 3 kt
Viditelnost 10 km a více
Polojasno ve výšce 2500 ft
Změna
od 18 v 11 UTC do 18 v 13 UTC
Severoseverozápadní vítr 5 kt
Pravděpodobnost 30% :
Dočasný
od 18 v 15 UTC do 18 v 18 UTC
Severoseverozápadní vítr 15 kt s nárazy do 25 kt
Polojasno ve výšce 4000 ft, Cumulonimbus.
bouřka, déšť

TAF: EDMA 180800Z 1809/1818 28003KT 9999 SCT025 BECMG 1811/1813 34005KT PROB30 TEMPO 1815/1818 34015G25KT TSRA SCT040CB

Stav a předpovědi počasí z více než 4 000 letišť (zprávy METAR a TAF).

Červené a žluté tečky na mapě představují dostupné meteorologické stanice.

Když kurzor umístíte na tečku, zobrazí se název stanice.

Pak kliknutím zobrazíte stav a předpověď počasí.

Chcete-li změnit mapu, kliknutím na zelené tlačítko se znaménkem +mapu přiblížíte, kliknutím na zelené tlačítko se znaménkem – mapu oddálíte a kliknutím na zelené šipky přejdete na sousední mapy.


METAR-TAF: